Time;durP1;ratioP1;P1;durP2;ratioP2;P2;SDS_P1;SDS_P2;PMS_P1;PMS_P2;Temp;Humidity;BMP_temperature;BMP_pressure;BME280_temperature;BME280_humidity;BME280_pressure;Samples;Min_cycle;Max_cycle;Signal;HPM_P1;HPM_P2
2022/11/19 00:01:14;;;;;;;23.70;15.30;;;-7.90;99.90;;;;;;5090320;28;20202;-75
2022/11/19 00:03:41;;;;;;;19.37;14.63;;;-7.70;99.90;;;;;;5093634;28;20191;-79
2022/11/19 00:06:15;;;;;;;18.23;15.53;;;-7.50;99.90;;;;;;5094290;28;20598;-77
2022/11/19 00:08:41;;;;;;;16.47;14.87;;;-6.70;99.90;;;;;;5095438;28;20179;-75
2022/11/19 00:11:10;;;;;;;19.53;15.57;;;-7.00;99.90;;;;;;5096541;28;20197;-73
2022/11/19 00:13:40;;;;;;;19.67;14.87;;;-8.30;99.90;;;;;;5095334;28;20172;-74
2022/11/19 00:16:13;;;;;;;24.83;16.53;;;-8.50;99.90;;;;;;5088507;28;20187;-75
2022/11/19 00:18:40;;;;;;;18.60;15.97;;;-6.20;99.90;;;;;;5085950;28;20204;-77
2022/11/19 00:21:08;;;;;;;18.27;16.43;;;-5.90;99.90;;;;;;5086158;28;20213;-74
2022/11/19 00:23:35;;;;;;;21.17;16.23;;;-8.20;99.90;;;;;;5085370;28;20171;-77
2022/11/19 00:26:12;;;;;;;20.20;15.57;;;-9.20;99.90;;;;;;5085197;28;20187;-72
2022/11/19 00:28:38;;;;;;;17.47;14.87;;;-8.90;99.90;;;;;;5095192;28;20178;-72
2022/11/19 00:31:07;;;;;;;21.83;17.80;;;-8.90;99.90;;;;;;5099136;28;20194;-73
2022/11/19 00:33:34;;;;;;;21.20;16.03;;;-7.90;99.90;;;;;;5092632;28;20189;-74
2022/11/19 00:36:01;;;;;;;20.03;16.30;;;-7.00;99.90;;;;;;5090983;28;20167;-74
2022/11/19 00:38:28;;;;;;;18.93;14.47;;;-9.00;99.90;;;;;;5094131;28;20240;-73
2022/11/19 00:40:54;;;;;;;21.40;15.93;;;-9.50;99.90;;;;;;5084499;28;20689;-73
2022/11/19 00:46:05;;;;;;;20.17;14.97;;;-10.60;99.90;;;;;;5094760;28;20194;-75
2022/11/19 00:48:31;;;;;;;17.70;15.13;;;-9.70;99.90;;;;;;5094221;28;20242;-74
2022/11/19 00:50:57;;;;;;;29.93;18.17;;;-10.00;99.90;;;;;;5090022;28;20183;-75
2022/11/19 00:53:22;;;;;;;21.70;16.50;;;-7.70;99.90;;;;;;5091039;28;20273;-72
2022/11/19 00:55:48;;;;;;;24.57;14.97;;;-8.60;99.90;;;;;;5094614;28;20182;-76
2022/11/19 00:58:14;;;;;;;20.80;16.93;;;-8.90;99.90;;;;;;5097594;28;20225;-76
2022/11/19 01:00:40;;;;;;;18.57;15.43;;;-9.10;99.90;;;;;;5097415;28;20285;-73
2022/11/19 01:03:05;;;;;;;23.43;16.90;;;-8.70;99.90;;;;;;5096586;28;20205;-72
2022/11/19 01:05:31;;;;;;;17.87;15.17;;;-10.00;99.90;;;;;;5096718;28;20182;-73
2022/11/19 01:07:57;;;;;;;18.60;16.20;;;-9.70;99.90;;;;;;5084092;28;20524;-73
2022/11/19 01:10:23;;;;;;;18.83;16.37;;;-8.60;99.90;;;;;;5096422;28;20187;-77
2022/11/19 01:15:33;;;;;;;19.30;16.10;;;-8.70;99.90;;;;;;5093047;28;20183;-73
2022/11/19 01:17:59;;;;;;;17.57;15.70;;;-8.60;99.90;;;;;;5083473;28;20182;-75
2022/11/19 01:20:24;;;;;;;19.17;16.70;;;-8.10;99.90;;;;;;5096357;28;20209;-73
2022/11/19 01:22:50;;;;;;;22.63;17.20;;;-9.50;99.90;;;;;;5085679;28;20174;-77
2022/11/19 01:25:16;;;;;;;18.83;15.23;;;-9.70;99.90;;;;;;5085325;28;20179;-73
2022/11/19 01:27:41;;;;;;;16.90;14.33;;;-10.60;99.90;;;;;;5084547;28;20224;-74
2022/11/19 01:30:08;;;;;;;18.27;16.27;;;-10.20;99.90;;;;;;5090472;28;20258;-76
2022/11/19 01:32:34;;;;;;;22.47;16.50;;;-10.40;99.90;;;;;;5096829;28;20177;-73
2022/11/19 01:35:00;;;;;;;19.30;15.87;;;-9.20;99.90;;;;;;5105914;27;20183;-72
2022/11/19 01:37:26;;;;;;;18.00;16.10;;;-8.10;99.90;;;;;;5090181;28;20187;-74
2022/11/19 01:39:52;;;;;;;30.77;18.07;;;-7.90;99.90;;;;;;5090521;28;20238;-74
2022/11/19 01:45:30;;;;;;;22.07;15.93;;;-8.30;99.90;;;;;;5079992;28;20194;-77
2022/11/19 01:48:27;;;;;;;30.10;18.80;;;-9.30;99.90;;;;;;5091381;28;20260;-76
2022/11/19 01:51:00;;;;;;;33.57;16.63;;;-10.10;99.90;;;;;;5090715;28;20190;-76
2022/11/19 01:53:34;;;;;;;20.73;16.33;;;-9.50;99.90;;;;;;5095951;28;20626;-76
2022/11/19 01:56:02;;;;;;;20.73;16.33;;;-11.00;99.90;;;;;;5095656;28;20258;-78
2022/11/19 01:58:33;;;;;;;24.20;17.40;;;-8.70;99.90;;;;;;5092162;28;20195;-76
2022/11/19 02:00:59;;;;;;;21.37;17.87;;;-9.30;99.90;;;;;;5096530;28;20588;-76
2022/11/19 02:03:29;;;;;;;19.33;16.17;;;-10.40;99.90;;;;;;5091573;28;20266;-75
2022/11/19 02:05:55;;;;;;;23.73;17.77;;;-11.80;99.90;;;;;;5084964;28;20232;-76
2022/11/19 02:08:43;;;;;;;23.07;16.67;;;-8.90;99.90;;;;;;5090056;28;20193;-77
2022/11/19 02:11:20;;;;;;;27.83;16.33;;;-8.40;99.90;;;;;;5084418;28;20194;-74
2022/11/19 02:14:18;;;;;;;18.60;16.70;;;-9.20;99.90;;;;;;5084887;28;20178;-77
2022/11/19 02:16:52;;;;;;;21.17;16.47;;;-10.10;99.90;;;;;;5091677;28;20198;-77
2022/11/19 02:19:56;;;;;;;18.87;16.33;;;-9.80;99.90;;;;;;5093733;28;20499;-76
2022/11/19 02:22:31;;;;;;;20.57;16.47;;;-10.60;99.90;;;;;;5089402;28;20186;-76
2022/11/19 02:25:29;;;;;;;22.37;15.03;;;-10.20;99.90;;;;;;5087949;28;20733;-76
2022/11/19 02:28:23;;;;;;;23.23;15.67;;;-10.30;99.90;;;;;;5084470;28;20218;-75
2022/11/19 02:30:53;;;;;;;18.57;15.23;;;-9.40;99.90;;;;;;5085529;28;20191;-75
2022/11/19 02:33:28;;;;;;;19.20;15.93;;;-10.00;99.90;;;;;;5095823;28;20212;-76
2022/11/19 02:36:33;;;;;;;17.10;15.10;;;-10.40;99.90;;;;;;5095159;28;20236;-77
2022/11/19 02:39:11;;;;;;;23.07;16.40;;;-10.60;99.90;;;;;;5078988;28;20328;-79
2022/11/19 02:42:19;;;;;;;17.93;14.20;;;-10.20;99.90;;;;;;5092166;28;20246;-78
2022/11/19 02:44:57;;;;;;;17.37;14.97;;;-9.50;99.90;;;;;;5091164;28;20185;-73
2022/11/19 02:47:36;;;;;;;23.23;15.80;;;-9.30;99.90;;;;;;5095663;28;20183;-71
2022/11/19 02:50:08;;;;;;;18.50;15.10;;;-8.20;99.90;;;;;;5085467;28;20258;-72
2022/11/19 02:52:35;;;;;;;19.63;15.03;;;-9.00;99.90;;;;;;5093971;28;20206;-73
2022/11/19 02:55:01;;;;;;;18.23;15.80;;;-8.30;99.90;;;;;;5080777;28;20591;-74
2022/11/19 02:57:27;;;;;;;20.83;15.83;;;-8.90;99.90;;;;;;5088759;28;20182;-75
2022/11/19 03:05:38;;;;;;;19.57;14.77;;;-10.60;99.90;;;;;;5087945;28;20267;-76
2022/11/19 03:08:04;;;;;;;20.03;16.43;;;-10.00;99.90;;;;;;5091259;28;20174;-74
2022/11/19 03:10:50;;;;;;;18.67;14.90;;;-10.30;99.90;;;;;;5086009;28;20332;-79
2022/11/19 03:16:42;;;;;;;20.87;15.13;;;-8.90;99.90;;;;;;5047631;28;20680;-74
2022/11/19 03:19:22;;;;;;;19.43;15.23;;;-10.30;99.90;;;;;;5090958;28;20197;-73
2022/11/19 03:21:59;;;;;;;21.10;16.57;;;-9.20;99.90;;;;;;5095498;28;20206;-76
2022/11/19 03:24:41;;;;;;;19.47;14.83;;;-10.20;99.90;;;;;;5095090;28;20589;-74
2022/11/19 03:27:17;;;;;;;21.77;15.37;;;-10.70;99.90;;;;;;5094700;28;20582;-73
2022/11/19 03:29:47;;;;;;;17.93;15.70;;;-10.60;99.90;;;;;;5094367;28;20243;-77
2022/11/19 03:32:22;;;;;;;16.90;15.17;;;-11.20;99.90;;;;;;5091684;28;20239;-78
2022/11/19 03:34:53;;;;;;;21.07;15.10;;;-10.70;99.90;;;;;;5086834;28;20224;-76
2022/11/19 03:37:23;;;;;;;21.73;17.53;;;-10.20;99.90;;;;;;5087572;28;20240;-77
2022/11/19 03:39:51;;;;;;;19.83;15.73;;;-9.20;99.90;;;;;;5093785;28;20854;-77
2022/11/19 03:42:19;;;;;;;18.43;15.50;;;-8.10;99.90;;;;;;5094472;28;20243;-76
2022/11/19 03:44:51;;;;;;;24.10;16.70;;;-9.20;99.90;;;;;;5094819;28;20206;-79
2022/11/19 03:47:29;;;;;;;22.17;16.87;;;-9.60;99.90;;;;;;5094889;28;20183;-75
2022/11/19 03:50:04;;;;;;;22.90;18.40;;;-10.80;99.90;;;;;;5091266;28;20186;-77
2022/11/19 03:52:30;;;;;;;17.83;16.03;;;-10.10;99.90;;;;;;5086036;28;20294;-77
2022/11/19 03:54:56;;;;;;;16.67;14.97;;;-9.10;99.90;;;;;;5085227;28;20183;-76
2022/11/19 03:57:24;;;;;;;18.00;14.93;;;-9.00;99.90;;;;;;5085136;28;20192;-74
2022/11/19 03:59:49;;;;;;;26.27;16.70;;;-9.70;99.90;;;;;;5089516;28;20232;-76
2022/11/19 04:02:15;;;;;;;19.53;17.53;;;-10.40;99.90;;;;;;5087738;28;20284;-76
2022/11/19 04:04:41;;;;;;;24.73;16.57;;;-10.30;99.90;;;;;;5093780;28;20180;-76
2022/11/19 04:07:19;;;;;;;19.67;16.30;;;-9.80;99.90;;;;;;5083913;28;20673;-75
2022/11/19 04:09:45;;;;;;;24.13;17.47;;;-9.20;99.90;;;;;;5089871;28;20191;-75
2022/11/19 04:12:22;;;;;;;19.17;16.57;;;-10.10;99.90;;;;;;5092744;28;20190;-73
2022/11/19 04:14:48;;;;;;;19.80;16.87;;;-10.50;99.90;;;;;;5085678;28;20191;-73
2022/11/19 04:17:15;;;;;;;18.23;15.43;;;-10.60;99.90;;;;;;5093339;28;20191;-72
2022/11/19 04:19:41;;;;;;;25.17;16.93;;;-9.00;99.90;;;;;;5097856;28;20206;-73
2022/11/19 04:22:07;;;;;;;21.30;16.27;;;-9.00;99.90;;;;;;5097986;28;20185;-73
2022/11/19 04:24:33;;;;;;;19.60;15.60;;;-9.70;99.90;;;;;;5097672;28;20200;-74
2022/11/19 04:26:59;;;;;;;21.83;14.93;;;-10.10;99.90;;;;;;5088921;28;21757;-73
2022/11/19 04:29:25;;;;;;;20.30;15.77;;;-9.90;99.90;;;;;;5084369;28;20575;-73
2022/11/19 04:31:50;;;;;;;19.20;17.27;;;-11.00;99.90;;;;;;5092433;28;20270;-71
2022/11/19 04:34:16;;;;;;;22.17;18.53;;;-11.60;99.90;;;;;;5098147;28;20186;-72
2022/11/19 04:36:42;;;;;;;18.40;16.60;;;-9.50;99.90;;;;;;5097831;28;20262;-72
2022/11/19 04:39:09;;;;;;;23.10;18.37;;;-10.00;99.90;;;;;;5092409;28;20253;-72
2022/11/19 04:41:35;;;;;;;20.77;17.03;;;-10.30;99.90;;;;;;5093394;28;20568;-74
2022/11/19 04:44:01;;;;;;;19.60;17.53;;;-10.00;99.90;;;;;;5096191;28;20610;-75
2022/11/19 04:46:27;;;;;;;18.57;16.53;;;-8.90;99.90;;;;;;5091945;28;20179;-74
2022/11/19 04:48:53;;;;;;;21.50;17.13;;;-7.80;99.90;;;;;;5097422;28;20240;-73
2022/11/19 04:51:18;;;;;;;20.03;16.70;;;-8.60;99.90;;;;;;5096555;28;20259;-74
2022/11/19 04:53:44;;;;;;;20.40;17.73;;;-8.90;99.90;;;;;;5092051;28;20199;-72
2022/11/19 04:56:10;;;;;;;21.07;18.07;;;-8.00;99.90;;;;;;5081951;28;20214;-73
2022/11/19 04:58:36;;;;;;;18.50;15.13;;;-8.10;99.90;;;;;;5096870;28;20187;-74
2022/11/19 05:01:02;;;;;;;20.87;15.90;;;-8.60;99.90;;;;;;5087314;28;20206;-72
2022/11/19 05:03:28;;;;;;;20.07;15.53;;;-9.30;99.90;;;;;;5088360;28;20199;-72
2022/11/19 05:05:54;;;;;;;23.57;16.47;;;-8.80;99.90;;;;;;5082948;28;20191;-73
2022/11/19 05:08:20;;;;;;;26.50;15.87;;;-9.10;99.90;;;;;;5093887;28;20187;-71
2022/11/19 05:10:46;;;;;;;17.97;16.17;;;-9.70;99.90;;;;;;5097032;28;20217;-71
2022/11/19 05:13:11;;;;;;;19.80;16.10;;;-10.70;99.90;;;;;;5097118;28;20182;-73
2022/11/19 05:15:37;;;;;;;21.53;15.90;;;-10.30;99.90;;;;;;5091779;28;20189;-75
2022/11/19 05:18:03;;;;;;;17.83;16.10;;;-11.00;99.90;;;;;;5092021;28;20501;-73
2022/11/19 05:20:29;;;;;;;18.13;16.20;;;-10.70;99.90;;;;;;5094526;28;20206;-74
2022/11/19 05:22:55;;;;;;;19.70;16.47;;;-10.50;99.90;;;;;;5095353;28;20189;-74
2022/11/19 05:25:20;;;;;;;22.80;16.27;;;-10.10;99.90;;;;;;5090136;28;20499;-76
2022/11/19 05:27:46;;;;;;;21.60;16.10;;;-10.20;99.90;;;;;;5096499;28;20197;-72
2022/11/19 05:30:12;;;;;;;18.97;16.47;;;-9.50;99.90;;;;;;5095233;28;20191;-75
2022/11/19 05:32:37;;;;;;;21.00;17.53;;;-9.90;99.90;;;;;;5097225;28;20198;-73
2022/11/19 05:35:04;;;;;;;19.40;16.80;;;-9.30;99.90;;;;;;5096757;28;20201;-71
2022/11/19 05:37:30;;;;;;;19.70;17.60;;;-9.60;99.90;;;;;;5096670;28;20197;-74
2022/11/19 05:39:56;;;;;;;19.73;17.03;;;-9.60;99.90;;;;;;5096834;28;20210;-72
2022/11/19 05:42:22;;;;;;;18.13;16.33;;;-10.70;99.90;;;;;;5096850;28;20250;-72
2022/11/19 05:44:47;;;;;;;23.47;16.87;;;-9.80;99.90;;;;;;5081384;28;20187;-75
2022/11/19 05:47:15;;;;;;;19.33;17.27;;;-8.40;99.90;;;;;;5088218;28;20183;-73
2022/11/19 05:49:40;;;;;;;25.77;16.20;;;-9.10;99.90;;;;;;5089557;28;20186;-73
2022/11/19 05:52:06;;;;;;;18.13;16.27;;;-8.70;99.90;;;;;;5086279;28;20287;-72
2022/11/19 05:54:32;;;;;;;22.20;16.10;;;-8.40;99.90;;;;;;5096964;28;20197;-75
2022/11/19 05:56:58;;;;;;;21.67;16.57;;;-8.40;99.90;;;;;;5093161;28;20191;-72
2022/11/19 05:59:24;;;;;;;21.60;18.30;;;-9.50;99.90;;;;;;5086848;28;20236;-79
2022/11/19 06:01:49;;;;;;;25.83;18.03;;;-8.70;99.90;;;;;;5087112;28;20183;-77
2022/11/19 06:04:15;;;;;;;20.37;16.53;;;-7.80;99.90;;;;;;5089758;28;20179;-75
2022/11/19 06:06:41;;;;;;;17.93;16.13;;;-8.10;99.90;;;;;;5086588;28;20187;-73
2022/11/19 06:09:07;;;;;;;17.80;15.47;;;-9.50;99.90;;;;;;5096172;28;20178;-77
2022/11/19 06:11:49;;;;;;;19.43;16.80;;;-11.20;99.90;;;;;;5096190;28;20243;-77
2022/11/19 06:14:21;;;;;;;20.50;18.40;;;-11.00;99.90;;;;;;5091807;28;20596;-76
2022/11/19 06:16:48;;;;;;;19.20;16.13;;;-11.30;99.90;;;;;;5106242;27;20587;-77
2022/11/19 06:19:14;;;;;;;24.30;17.97;;;-10.80;99.90;;;;;;5080418;28;20288;-77
2022/11/19 06:21:39;;;;;;;18.87;16.87;;;-11.00;99.90;;;;;;5091050;28;20224;-72
2022/11/19 06:24:05;;;;;;;19.43;17.43;;;-10.00;99.90;;;;;;5095361;28;20217;-76
2022/11/19 06:26:31;;;;;;;22.53;18.30;;;-9.20;99.90;;;;;;5111953;27;20181;-78
2022/11/19 06:28:57;;;;;;;24.67;16.77;;;-9.70;99.90;;;;;;5091119;28;20182;-78
2022/11/19 06:31:23;;;;;;;19.47;16.50;;;-11.50;99.90;;;;;;5092188;28;20190;-78
2022/11/19 06:33:49;;;;;;;19.83;17.77;;;-11.50;99.90;;;;;;5095741;28;20192;-78
2022/11/19 06:36:15;;;;;;;22.70;17.83;;;-10.20;99.90;;;;;;5099522;28;20587;-77
2022/11/19 06:38:41;;;;;;;20.03;17.73;;;-10.20;99.90;;;;;;5090505;28;20194;-78
2022/11/19 06:41:07;;;;;;;23.13;16.13;;;-10.50;99.90;;;;;;5079377;28;20345;-78
2022/11/19 06:43:32;;;;;;;19.40;16.07;;;-10.60;99.90;;;;;;5093929;28;20623;-76
2022/11/19 06:45:58;;;;;;;19.47;17.27;;;-10.20;99.90;;;;;;5082288;28;20225;-78
2022/11/19 06:48:24;;;;;;;20.37;17.67;;;-9.40;99.90;;;;;;5081721;28;20183;-78
2022/11/19 06:50:50;;;;;;;21.50;18.23;;;-9.00;99.90;;;;;;5092186;28;20248;-75
2022/11/19 06:53:15;;;;;;;19.10;15.57;;;-9.50;99.90;;;;;;5089184;28;20202;-76
2022/11/19 06:55:41;;;;;;;21.07;16.90;;;-9.70;99.90;;;;;;5095686;28;20193;-75
2022/11/19 06:58:07;;;;;;;28.17;18.97;;;-9.90;99.90;;;;;;5088273;28;20474;-78
2022/11/19 07:00:34;;;;;;;20.80;17.37;;;-9.60;99.90;;;;;;5093895;28;20214;-78
2022/11/19 07:03:01;;;;;;;19.40;17.10;;;-10.00;99.90;;;;;;5094062;28;20226;-78
2022/11/19 07:05:27;;;;;;;20.23;17.57;;;-10.50;99.90;;;;;;5089732;28;20179;-76
2022/11/19 07:07:53;;;;;;;21.70;17.60;;;-10.30;99.90;;;;;;5090206;28;20272;-78
2022/11/19 07:10:19;;;;;;;19.40;17.37;;;-10.10;99.90;;;;;;5090172;28;20197;-73
2022/11/19 07:12:45;;;;;;;18.00;16.17;;;-10.50;99.90;;;;;;5095382;28;20183;-79
2022/11/19 07:15:10;;;;;;;18.13;16.27;;;-10.00;99.90;;;;;;5094947;28;20184;-79
2022/11/19 07:17:41;;;;;;;17.57;15.33;;;-10.00;99.90;;;;;;5095632;28;20192;-77
2022/11/19 07:20:07;;;;;;;21.90;16.53;;;-11.20;99.90;;;;;;5094717;28;20209;-76
2022/11/19 07:22:33;;;;;;;18.83;16.10;;;-10.30;99.90;;;;;;5095121;28;20182;-78
2022/11/19 07:24:59;;;;;;;27.33;17.80;;;-9.80;99.90;;;;;;5095226;28;20213;-78
2022/11/19 07:27:25;;;;;;;23.67;16.67;;;-9.70;99.90;;;;;;5087837;28;20175;-78
2022/11/19 07:29:50;;;;;;;18.73;16.63;;;-10.60;99.90;;;;;;5084120;28;20207;-76
2022/11/19 07:32:16;;;;;;;19.90;17.53;;;-10.30;99.90;;;;;;5087090;28;20271;-79
2022/11/19 07:34:42;;;;;;;18.77;16.97;;;-11.90;99.90;;;;;;5086212;28;20607;-77
2022/11/19 07:37:07;;;;;;;23.30;17.17;;;-11.70;99.90;;;;;;5096133;28;20210;-78
2022/11/19 07:39:33;;;;;;;18.80;16.87;;;-12.00;99.90;;;;;;5110818;28;20218;-76
2022/11/19 07:44:43;;;;;;;21.93;18.17;;;-11.60;99.90;;;;;;5087774;28;20186;-74
2022/11/19 07:47:09;;;;;;;18.27;16.00;;;-11.90;99.90;;;;;;5092879;28;20545;-78
2022/11/19 07:49:35;;;;;;;19.97;17.27;;;-11.80;99.90;;;;;;5095138;28;20477;-79
2022/11/19 07:52:00;;;;;;;21.70;17.00;;;-12.00;99.90;;;;;;5092604;28;20645;-74
2022/11/19 07:54:27;;;;;;;18.13;15.70;;;-12.50;99.90;;;;;;5096505;28;20179;-76
2022/11/19 07:56:53;;;;;;;20.53;17.33;;;-11.70;99.90;;;;;;5089107;28;20626;-77
2022/11/19 07:59:27;;;;;;;29.53;18.07;;;-11.40;99.90;;;;;;5091293;28;20300;-76
2022/11/19 08:01:58;;;;;;;15.00;12.50;;;-10.90;99.90;;;;;;5091078;28;20198;-69
2022/11/19 08:04:26;;;;;;;16.03;13.77;;;-11.60;99.90;;;;;;5089281;28;20276;-77
2022/11/19 08:06:52;;;;;;;14.57;11.93;;;-11.10;99.90;;;;;;5090505;28;20173;-74
2022/11/19 08:09:18;;;;;;;12.87;10.00;;;-10.80;99.90;;;;;;5092630;28;20214;-75
2022/11/19 08:11:44;;;;;;;6.80;5.87;;;-11.70;99.90;;;;;;5092707;28;20541;-71
2022/11/19 08:14:13;;;;;;;6.60;5.90;;;-11.50;99.90;;;;;;5088737;28;20206;-73
2022/11/19 08:19:23;;;;;;;6.07;5.53;;;-12.20;99.90;;;;;;5093615;28;20206;-79
2022/11/19 08:21:49;;;;;;;7.83;7.07;;;-12.40;99.90;;;;;;5092909;28;20571;-72
2022/11/19 08:24:18;;;;;;;10.03;8.07;;;-11.40;99.90;;;;;;5088158;28;20192;-74
2022/11/19 08:26:44;;;;;;;8.90;7.23;;;-12.30;99.90;;;;;;5096603;28;20237;-79
2022/11/19 08:29:12;;;;;;;7.83;7.03;;;-10.80;99.90;;;;;;5096856;28;20215;-72
2022/11/19 08:31:39;;;;;;;7.93;7.17;;;-11.30;99.90;;;;;;5085699;28;20264;-73
2022/11/19 08:34:05;;;;;;;8.47;7.57;;;-10.20;99.90;;;;;;5088911;28;20190;-73
2022/11/19 08:36:30;;;;;;;8.47;6.90;;;-12.40;99.90;;;;;;5089467;28;20182;-72
2022/11/19 08:38:57;;;;;;;9.10;8.20;;;-11.10;99.90;;;;;;5086574;28;20233;-73
2022/11/19 08:44:08;;;;;;;9.07;7.07;;;-10.80;99.90;;;;;;5094531;28;20213;-75
2022/11/19 08:46:34;;;;;;;8.93;7.77;;;-11.70;99.90;;;;;;5092007;28;20178;-70
2022/11/19 08:48:59;;;;;;;7.47;5.80;;;-11.20;99.90;;;;;;5086592;28;20258;-71
2022/11/19 08:51:25;;;;;;;6.73;5.73;;;-10.90;99.90;;;;;;5090365;28;20193;-80
2022/11/19 08:53:52;;;;;;;5.83;5.30;;;-10.90;99.90;;;;;;5096339;28;20489;-78
2022/11/19 08:56:18;;;;;;;9.00;5.63;;;-9.40;99.90;;;;;;5096813;28;20793;-70
2022/11/19 08:58:44;;;;;;;5.97;5.47;;;-11.00;99.90;;;;;;5097734;28;20574;-77
2022/11/19 09:01:11;;;;;;;6.30;5.80;;;-12.70;99.90;;;;;;5081702;28;20218;-73
2022/11/19 09:03:37;;;;;;;6.10;5.60;;;-11.20;99.90;;;;;;5094173;28;20228;-72
2022/11/19 09:06:05;;;;;;;9.17;6.53;;;-12.10;99.90;;;;;;5097893;28;20496;-79
2022/11/19 09:08:32;;;;;;;7.57;6.43;;;-10.80;99.90;;;;;;5097695;28;20178;-74
2022/11/19 09:10:58;;;;;;;8.47;6.43;;;-10.90;99.90;;;;;;5089708;28;20190;-75
2022/11/19 09:13:24;;;;;;;8.17;7.00;;;-11.40;99.90;;;;;;5096021;28;20182;-79
2022/11/19 09:15:50;;;;;;;5.90;5.40;;;-10.70;99.90;;;;;;5085068;28;20511;-78
2022/11/19 09:18:17;;;;;;;5.83;5.33;;;-9.40;99.90;;;;;;5090455;28;20186;-73
2022/11/19 09:20:43;;;;;;;6.27;5.73;;;-9.40;99.90;;;;;;5096717;28;20213;-73
2022/11/19 09:23:09;;;;;;;7.00;6.30;;;-11.20;99.90;;;;;;5095786;28;20170;-78
2022/11/19 09:25:35;;;;;;;7.77;6.03;;;-10.70;99.90;;;;;;5090659;28;20212;-74
2022/11/19 09:28:02;;;;;;;5.87;5.47;;;-9.00;99.90;;;;;;5083041;28;20218;-78
2022/11/19 09:30:28;;;;;;;7.03;5.77;;;-9.90;99.90;;;;;;5094948;28;20843;-72
2022/11/19 09:32:54;;;;;;;7.03;5.60;;;-11.00;99.90;;;;;;5086333;28;20297;-76
2022/11/19 09:35:19;;;;;;;6.60;6.07;;;-10.90;99.90;;;;;;5084098;28;20483;-71
2022/11/19 09:37:45;;;;;;;7.83;7.00;;;-10.60;99.90;;;;;;5094909;28;20215;-74
2022/11/19 09:40:17;;;;;;;12.27;6.53;;;-11.50;99.90;;;;;;5095940;28;20223;-72
2022/11/19 09:42:47;;;;;;;6.53;5.63;;;-10.50;99.90;;;;;;5095771;28;20506;-77
2022/11/19 09:45:39;;;;;;;6.77;6.07;;;-10.00;99.90;;;;;;5090597;28;20183;-70
2022/11/19 09:48:09;;;;;;;12.63;11.47;;;-8.80;99.90;;;;;;5088415;28;20213;-70
2022/11/19 09:50:53;;;;;;;12.93;11.50;;;-7.50;99.90;;;;;;5093412;28;20560;-72
2022/11/19 09:53:22;;;;;;;20.37;16.77;;;-8.80;99.90;;;;;;5097586;28;20210;-72
2022/11/19 09:55:50;;;;;;;15.70;13.23;;;-9.10;99.90;;;;;;5091955;28;20825;-70
2022/11/19 09:58:41;;;;;;;22.20;18.60;;;-9.00;99.90;;;;;;5086587;28;20186;-78
2022/11/19 10:01:13;;;;;;;8.63;7.20;;;-9.50;99.90;;;;;;5088303;28;20589;-71
2022/11/19 10:03:42;;;;;;;7.20;6.70;;;-9.90;99.90;;;;;;5084558;28;20195;-76
2022/11/19 10:06:14;;;;;;;9.17;8.37;;;-9.90;99.90;;;;;;5091765;28;20500;-75
2022/11/19 10:09:04;;;;;;;4.87;4.50;;;-10.60;99.90;;;;;;5095857;28;20175;-78
2022/11/19 10:11:39;;;;;;;7.03;5.07;;;-10.80;99.90;;;;;;5090110;28;20582;-76
2022/11/19 10:14:28;;;;;;;8.03;7.27;;;-10.10;99.90;;;;;;5089380;28;20186;-76
2022/11/19 10:17:02;;;;;;;6.40;5.73;;;-10.50;99.90;;;;;;5096221;28;20205;-71
2022/11/19 10:19:34;;;;;;;5.70;5.20;;;-10.60;99.90;;;;;;5084506;28;20205;-76
2022/11/19 10:22:16;;;;;;;6.63;5.93;;;-10.70;99.90;;;;;;5092667;28;20203;-76
2022/11/19 10:24:57;;;;;;;11.03;9.63;;;-9.40;99.90;;;;;;5087496;28;20204;-75
2022/11/19 10:27:34;;;;;;;18.13;13.07;;;-9.00;99.90;;;;;;5089303;28;20166;-76
2022/11/19 10:30:05;;;;;;;9.33;8.40;;;-8.90;99.90;;;;;;5090822;28;20186;-75
2022/11/19 10:32:36;;;;;;;6.40;5.80;;;-8.80;99.90;;;;;;5088981;28;20218;-71
2022/11/19 10:35:07;;;;;;;6.17;5.47;;;-8.90;99.90;;;;;;5095424;28;20182;-71
2022/11/19 10:38:07;;;;;;;13.10;11.73;;;-9.90;99.90;;;;;;5091649;28;20186;-75
2022/11/19 10:40:43;;;;;;;6.90;6.30;;;-9.60;99.90;;;;;;5088134;28;20210;-71
2022/11/19 10:43:12;;;;;;;7.70;5.57;;;-10.00;99.90;;;;;;5089778;28;20189;-71
2022/11/19 10:45:37;;;;;;;5.67;5.07;;;-10.80;99.90;;;;;;5084395;28;20179;-74
2022/11/19 10:48:19;;;;;;;10.57;7.30;;;-10.10;99.90;;;;;;5096288;28;20230;-74
2022/11/19 10:50:46;;;;;;;7.37;6.53;;;-8.40;99.90;;;;;;5095357;28;20254;-71
2022/11/19 10:53:17;;;;;;;7.13;6.43;;;-10.60;99.90;;;;;;5093324;28;20195;-70
2022/11/19 10:55:50;;;;;;;8.70;7.90;;;-10.50;99.90;;;;;;5101371;28;20197;-71
2022/11/19 10:58:46;;;;;;;10.67;9.63;;;-10.00;99.90;;;;;;5094456;28;20189;-71
2022/11/19 11:01:38;;;;;;;11.30;9.33;;;-10.00;99.90;;;;;;5077827;28;20222;-72
2022/11/19 11:04:28;;;;;;;9.97;8.97;;;-9.90;99.90;;;;;;5079478;28;20210;-73
2022/11/19 11:06:59;;;;;;;13.90;9.40;;;-10.70;99.90;;;;;;5082639;28;20189;-71
2022/11/19 11:09:28;;;;;;;12.93;9.90;;;-9.60;99.90;;;;;;5092486;28;20793;-72
2022/11/19 11:15:18;;;;;;;15.17;8.30;;;-11.30;99.90;;;;;;5093714;28;20201;-71
2022/11/19 11:18:05;;;;;;;11.10;9.60;;;-10.40;99.90;;;;;;5095974;28;20454;-76
2022/11/19 11:20:32;;;;;;;10.10;9.13;;;-8.80;99.90;;;;;;5083208;28;20206;-72
2022/11/19 11:23:10;;;;;;;10.43;9.43;;;-8.80;99.90;;;;;;5091882;28;20193;-72
2022/11/19 11:25:50;;;;;;;13.30;8.97;;;-8.90;99.90;;;;;;5095387;28;20257;-69
2022/11/19 11:28:19;;;;;;;9.47;8.43;;;-7.80;99.90;;;;;;5094570;28;20240;-75
2022/11/19 11:31:00;;;;;;;10.83;9.07;;;-9.00;99.90;;;;;;5091348;28;20190;-71
2022/11/19 11:33:40;;;;;;;10.37;9.37;;;-9.60;99.90;;;;;;5091416;28;20183;-70
2022/11/19 11:36:30;;;;;;;9.90;8.90;;;-10.80;99.90;;;;;;5089829;28;20178;-76
2022/11/19 11:39:06;;;;;;;10.30;8.50;;;-11.30;99.90;;;;;;5091426;28;20163;-77
2022/11/19 11:41:51;;;;;;;11.97;10.77;;;-10.30;99.90;;;;;;5079468;28;20212;-78
2022/11/19 11:44:47;;;;;;;11.90;9.67;;;-10.40;99.90;;;;;;5084295;28;20471;-77
2022/11/19 11:47:22;;;;;;;12.90;11.43;;;-10.40;99.90;;;;;;5084997;28;20233;-70
2022/11/19 11:50:01;;;;;;;13.40;11.77;;;-11.70;99.90;;;;;;5107498;28;20221;-73
2022/11/19 11:52:36;;;;;;;13.67;10.60;;;-11.20;99.90;;;;;;5092825;28;20270;-70
2022/11/19 11:55:06;;;;;;;16.57;12.37;;;-12.40;99.90;;;;;;5086810;28;20189;-72
2022/11/19 11:57:48;;;;;;;13.17;11.73;;;-11.60;99.90;;;;;;5089287;28;20265;-71
2022/11/19 12:00:34;;;;;;;14.80;13.17;;;-9.70;99.90;;;;;;5089552;28;20504;-71
2022/11/19 12:03:03;;;;;;;16.57;12.00;;;-10.80;99.90;;;;;;5088026;28;20436;-75
2022/11/19 12:05:44;;;;;;;16.23;14.23;;;-11.90;99.90;;;;;;5089952;28;20464;-73
2022/11/19 12:08:19;;;;;;;16.83;12.57;;;-10.90;99.90;;;;;;5090971;28;20206;-71
2022/11/19 12:10:56;;;;;;;15.77;13.70;;;-11.70;99.90;;;;;;5090049;28;20743;-70
2022/11/19 12:13:31;;;;;;;14.67;11.80;;;-10.50;99.90;;;;;;5082763;28;20579;-71
2022/11/19 12:16:10;;;;;;;11.70;10.33;;;-10.40;99.90;;;;;;5084204;28;20570;-72
2022/11/19 12:19:04;;;;;;;12.63;10.93;;;-8.90;99.90;;;;;;5087817;28;20193;-74
2022/11/19 12:21:58;;;;;;;12.77;11.40;;;-9.10;99.90;;;;;;5065165;28;20937;-71
2022/11/19 12:24:45;;;;;;;15.10;12.13;;;-10.70;99.90;;;;;;5095375;28;20431;-72
2022/11/19 12:27:59;;;;;;;13.47;11.03;;;-10.40;99.90;;;;;;5084535;28;20439;-72
2022/11/19 12:30:44;;;;;;;10.90;9.77;;;-10.30;99.90;;;;;;5046475;28;20436;-74
2022/11/19 12:33:10;;;;;;;13.67;11.13;;;-10.70;99.90;;;;;;5094492;28;20478;-74
2022/11/19 12:35:39;;;;;;;12.20;10.83;;;-9.80;99.90;;;;;;5096391;28;20426;-70
2022/11/19 12:38:20;;;;;;;14.40;11.63;;;-10.20;99.90;;;;;;5084383;28;20209;-73
2022/11/19 12:41:30;;;;;;;11.13;10.07;;;-9.10;99.90;;;;;;5068189;28;20892;-71
2022/11/19 12:44:01;;;;;;;11.73;10.53;;;-10.60;99.90;;;;;;5092206;28;20510;-72
2022/11/19 12:46:45;;;;;;;14.37;12.07;;;-12.00;99.90;;;;;;5090610;28;20423;-70
2022/11/19 12:49:29;;;;;;;13.93;11.63;;;-11.40;99.90;;;;;;5086997;28;20522;-75
2022/11/19 12:52:10;;;;;;;13.47;11.13;;;-10.70;99.90;;;;;;5085146;28;20516;-71
2022/11/19 12:55:06;;;;;;;11.77;10.57;;;-11.00;99.90;;;;;;5093369;28;21352;-73
2022/11/19 12:58:09;;;;;;;16.93;14.43;;;-9.50;99.90;;;;;;5088872;28;20426;-71
2022/11/19 13:00:40;;;;;;;10.80;9.67;;;-9.90;99.90;;;;;;5093442;28;20521;-74
2022/11/19 13:03:13;;;;;;;12.63;10.77;;;-10.00;99.90;;;;;;5078479;28;20452;-73
2022/11/19 13:05:54;;;;;;;11.50;10.23;;;-10.40;99.90;;;;;;5085123;28;20493;-71
2022/11/19 13:08:41;;;;;;;12.60;11.13;;;-10.60;99.90;;;;;;5096826;28;20591;-70
2022/11/19 13:11:21;;;;;;;15.77;12.20;;;-12.10;99.90;;;;;;5097099;28;20503;-72
2022/11/19 13:13:57;;;;;;;12.90;10.43;;;-11.50;99.90;;;;;;5084874;28;20764;-72
2022/11/19 13:16:25;;;;;;;14.03;11.83;;;-11.60;99.90;;;;;;5088717;28;20858;-73